Time;durP1;ratioP1;P1;durP2;ratioP2;P2;SDS_P1;SDS_P2;PMS_P1;PMS_P2;Temp;Humidity;BMP_temperature;BMP_pressure;BME280_temperature;BME280_humidity;BME280_pressure;Samples;Min_cycle;Max_cycle;Signal;HPM_P1;HPM_P2
2024/02/28 00:00:11;;;;;;;19.30;14.75;;;;;;;11.73;63.47;98348.25;5070764;28;20557;-47
2024/02/28 00:02:37;;;;;;;26.73;20.70;;;;;;;11.62;64.04;98350.78;5072035;28;20028;-47
2024/02/28 00:05:03;;;;;;;24.30;16.67;;;;;;;11.64;64.50;98357.41;5072000;28;20020;-47
2024/02/28 00:07:30;;;;;;;23.30;17.98;;;;;;;11.66;64.41;98341.44;5070692;28;20482;-47
2024/02/28 00:09:57;;;;;;;28.80;21.35;;;;;;;11.63;64.30;98355.00;5071982;28;20016;-48
2024/02/28 00:12:27;;;;;;;24.50;19.35;;;;;;;11.65;64.41;98366.09;5071848;28;20027;-48
2024/02/28 00:14:52;;;;;;;23.63;20.08;;;;;;;11.66;64.11;98358.00;5070616;28;20040;-48
2024/02/28 00:17:18;;;;;;;25.48;19.10;;;;;;;11.65;64.30;98360.84;5071783;28;20024;-48
2024/02/28 00:19:44;;;;;;;22.85;18.88;;;;;;;11.76;63.89;98357.53;5071883;28;20025;-47
2024/02/28 00:22:09;;;;;;;21.08;17.05;;;;;;;11.78;64.02;98348.38;5071757;28;20020;-47
2024/02/28 00:24:35;;;;;;;25.10;18.10;;;;;;;11.76;63.90;98342.53;5071830;28;20058;-47
2024/02/28 00:27:01;;;;;;;22.70;18.20;;;;;;;11.79;63.77;98364.97;5071807;28;20418;-48
2024/02/28 00:29:27;;;;;;;20.63;16.90;;;;;;;11.82;63.34;98375.06;5071818;28;20024;-48
2024/02/28 00:31:53;;;;;;;23.27;18.77;;;;;;;11.68;63.83;98376.19;5070325;28;20028;-47
2024/02/28 00:34:18;;;;;;;23.92;19.85;;;;;;;11.55;64.01;98379.72;5071538;28;20510;-48
2024/02/28 00:36:44;;;;;;;25.98;19.92;;;;;;;11.55;64.07;98377.91;5071722;28;20020;-47
2024/02/28 00:39:11;;;;;;;23.92;18.80;;;;;;;11.51;64.12;98375.91;5087159;28;20059;-48
2024/02/28 00:41:37;;;;;;;24.95;17.75;;;;;;;11.42;65.08;98378.00;5071622;28;20032;-47
2024/02/28 00:44:03;;;;;;;22.15;18.40;;;;;;;11.34;65.07;98389.56;5070286;28;20028;-47
2024/02/28 00:46:29;;;;;;;23.95;17.45;;;;;;;11.37;65.16;98385.72;5071600;28;20020;-47
2024/02/28 00:48:55;;;;;;;24.10;20.83;;;;;;;11.36;65.42;98371.75;5070218;28;20035;-48
2024/02/28 00:51:20;;;;;;;23.15;16.95;;;;;;;11.36;65.14;98390.16;5070226;28;20016;-47
2024/02/28 00:53:46;;;;;;;22.02;18.10;;;;;;;11.39;65.30;98394.22;5071467;28;20024;-48
2024/02/28 00:56:12;;;;;;;24.10;16.30;;;;;;;11.41;65.13;98400.06;5071485;28;20139;-47
2024/02/28 00:58:38;;;;;;;26.05;18.90;;;;;;;11.40;65.54;98406.31;5071532;28;20491;-47
2024/02/28 01:01:05;;;;;;;23.63;20.00;;;;;;;11.47;65.20;98414.97;5071409;28;20021;-47
2024/02/28 01:03:30;;;;;;;26.27;20.00;;;;;;;11.48;65.27;98410.50;5072964;28;20563;-47
2024/02/28 01:05:56;;;;;;;27.13;19.15;;;;;;;11.50;64.99;98376.94;5074013;28;20170;-47
2024/02/28 01:08:22;;;;;;;29.60;19.25;;;;;;;11.47;64.98;98407.09;5075305;28;20490;-47
2024/02/28 01:10:48;;;;;;;25.00;20.42;;;;;;;11.47;65.48;98396.56;5075300;28;20029;-47
2024/02/28 01:13:13;;;;;;;23.77;18.67;;;;;;;11.57;64.97;98427.63;5075667;28;20498;-48
2024/02/28 01:15:42;;;;;;;25.77;18.52;;;;;;;11.57;64.83;98411.88;5073785;28;20571;-47
2024/02/28 01:18:08;;;;;;;24.70;18.02;;;;;;;11.62;64.85;98429.63;5073913;28;20494;-47
2024/02/28 01:20:34;;;;;;;24.02;21.38;;;;;;;11.64;64.46;98412.59;5075044;28;20031;-48
2024/02/28 01:23:00;;;;;;;27.05;21.48;;;;;;;11.67;64.37;98430.59;5075025;28;20016;-47
2024/02/28 01:25:25;;;;;;;35.10;29.92;;;;;;;11.64;64.67;98432.84;5073620;28;20032;-47
2024/02/28 01:27:51;;;;;;;27.70;23.27;;;;;;;11.68;64.16;98426.94;5074974;28;20021;-48
2024/02/28 01:30:17;;;;;;;28.02;22.75;;;;;;;11.70;64.11;98426.72;5074871;28;20048;-48
2024/02/28 01:32:42;;;;;;;28.55;23.88;;;;;;;11.70;64.20;98443.28;5074492;28;20426;-47
2024/02/28 01:35:09;;;;;;;22.00;18.52;;;;;;;11.73;64.14;98429.75;5074788;28;20023;-48
2024/02/28 01:37:34;;;;;;;24.60;20.83;;;;;;;11.76;63.72;98446.91;5073495;28;20025;-48
2024/02/28 01:40:00;;;;;;;24.17;20.42;;;;;;;11.81;63.90;98439.16;5074727;28;20391;-48
2024/02/28 01:42:26;;;;;;;24.33;21.00;;;;;;;11.77;63.32;98440.63;5073421;28;20086;-48
2024/02/28 01:44:52;;;;;;;25.90;19.67;;;;;;;11.75;63.60;98440.84;5074689;28;20526;-48
2024/02/28 01:47:20;;;;;;;24.15;18.27;;;;;;;11.82;63.22;98440.00;5074574;28;20024;-47
2024/02/28 01:49:47;;;;;;;27.63;20.65;;;;;;;11.76;62.95;98450.31;5074613;28;20378;-47
2024/02/28 01:52:13;;;;;;;24.73;19.92;;;;;;;11.77;63.29;98445.88;5074461;28;20024;-47
2024/02/28 01:54:39;;;;;;;26.35;19.35;;;;;;;11.78;63.57;98453.56;5074500;28;20025;-48
2024/02/28 01:57:06;;;;;;;27.17;19.73;;;;;;;11.83;63.00;98444.22;5074448;28;20150;-48
2024/02/28 01:59:34;;;;;;;24.35;18.83;;;;;;;11.79;62.56;98468.31;5090077;28;20571;-47
2024/02/28 02:02:00;;;;;;;28.00;19.70;;;;;;;11.75;63.26;98464.50;5073011;28;20031;-48
2024/02/28 02:04:26;;;;;;;24.58;19.30;;;;;;;11.84;62.81;98459.00;5074359;28;20021;-47
2024/02/28 02:06:54;;;;;;;24.83;19.25;;;;;;;11.79;63.02;98480.63;5072936;28;20021;-47
2024/02/28 02:09:20;;;;;;;25.33;19.52;;;;;;;11.78;63.19;98479.84;5072916;28;20031;-47
2024/02/28 02:11:46;;;;;;;24.65;19.38;;;;;;;11.73;62.85;98476.25;5072741;28;20020;-47
2024/02/28 02:14:13;;;;;;;26.95;21.95;;;;;;;11.66;63.16;98496.53;5073797;28;20031;-48
2024/02/28 02:16:38;;;;;;;22.92;19.42;;;;;;;11.56;63.03;98478.56;5072283;28;20150;-47
2024/02/28 02:19:04;;;;;;;26.27;22.10;;;;;;;11.44;63.51;98482.91;5072716;28;20029;-48
2024/02/28 02:21:34;;;;;;;52.90;39.88;;;;;;;11.48;63.67;98479.63;5073961;28;20433;-47
2024/02/28 02:24:00;;;;;;;30.02;25.23;;;;;;;11.49;63.95;98493.56;5073829;28;20082;-48
2024/02/28 02:26:26;;;;;;;27.88;23.45;;;;;;;11.50;63.48;98487.31;5074139;28;20050;-48
2024/02/28 02:28:51;;;;;;;28.80;21.85;;;;;;;11.38;63.68;98472.19;5073797;28;20451;-48
2024/02/28 02:31:17;;;;;;;26.52;21.05;;;;;;;11.31;63.90;98486.41;5072517;28;20081;-48
2024/02/28 02:33:43;;;;;;;26.90;18.95;;;;;;;11.32;64.00;98483.56;5073431;28;20055;-47
2024/02/28 02:36:09;;;;;;;26.15;23.02;;;;;;;11.27;64.39;98501.78;5072326;28;20571;-48
2024/02/28 02:38:35;;;;;;;30.73;22.10;;;;;;;11.29;64.27;98493.66;5073693;28;20028;-48
2024/02/28 02:41:00;;;;;;;27.05;21.80;;;;;;;11.24;64.53;98489.06;5073580;28;20603;-48
2024/02/28 02:43:26;;;;;;;25.70;20.95;;;;;;;11.20;64.61;98503.63;5073523;28;20107;-47
2024/02/28 02:45:51;;;;;;;27.52;20.83;;;;;;;11.28;64.90;98499.94;5073722;28;20032;-47
2024/02/28 02:48:17;;;;;;;26.35;19.45;;;;;;;11.37;64.43;98494.25;5073489;28;20020;-47
2024/02/28 02:50:43;;;;;;;30.63;21.35;;;;;;;11.33;63.79;98500.16;5073368;28;20024;-47
2024/02/28 02:53:10;;;;;;;28.48;22.10;;;;;;;11.29;63.89;98491.88;5073531;28;20020;-48
2024/02/28 02:55:36;;;;;;;53.42;48.13;;;;;;;11.22;64.52;98498.16;5071954;28;20031;-48
2024/02/28 02:58:02;;;;;;;72.60;65.22;;;;;;;11.22;64.33;98500.78;5071898;28;20028;-48
2024/02/28 03:00:28;;;;;;;51.30;45.08;;;;;;;11.28;64.86;98487.63;5071856;28;20021;-47
2024/02/28 03:02:54;;;;;;;43.35;37.65;;;;;;;11.26;64.08;98505.41;5073077;28;20027;-48
2024/02/28 03:05:20;;;;;;;37.38;31.02;;;;;;;11.28;64.12;98520.97;5073068;28;20028;-48
2024/02/28 03:07:46;;;;;;;45.85;39.45;;;;;;;11.26;64.26;98525.63;5072987;28;20024;-48
2024/02/28 03:10:12;;;;;;;49.92;44.58;;;;;;;11.23;64.44;98537.38;5072911;28;20032;-48
2024/02/28 03:12:37;;;;;;;35.10;28.95;;;;;;;11.23;64.51;98531.28;5072838;28;20024;-48
2024/02/28 03:15:03;;;;;;;30.23;23.02;;;;;;;11.30;64.44;98545.22;5072874;28;20048;-48
2024/02/28 03:17:29;;;;;;;31.80;23.38;;;;;;;11.31;63.94;98534.50;5072865;28;20111;-48
2024/02/28 03:19:56;;;;;;;26.95;21.92;;;;;;;11.39;64.34;98547.41;5072747;28;20514;-48
2024/02/28 03:22:22;;;;;;;26.63;22.30;;;;;;;11.43;63.64;98542.53;5072692;28;20016;-48
2024/02/28 03:24:48;;;;;;;28.13;21.48;;;;;;;11.40;63.48;98538.47;5072697;28;20078;-48
2024/02/28 03:27:15;;;;;;;28.00;22.55;;;;;;;11.31;63.43;98555.53;5072604;28;20557;-48
2024/02/28 03:29:40;;;;;;;29.85;22.13;;;;;;;11.32;63.62;98551.06;5072646;28;20494;-47
2024/02/28 03:32:06;;;;;;;27.45;22.33;;;;;;;11.35;63.53;98564.59;5072640;28;20076;-48
2024/02/28 03:34:32;;;;;;;28.08;21.30;;;;;;;11.46;63.70;98570.22;5071173;28;20037;-48
2024/02/28 03:36:58;;;;;;;28.38;21.95;;;;;;;11.55;62.64;98567.13;5072362;28;20375;-48
2024/02/28 03:39:24;;;;;;;25.80;21.42;;;;;;;11.57;62.49;98559.06;5071234;28;20089;-48
2024/02/28 03:41:49;;;;;;;29.95;21.50;;;;;;;11.59;62.97;98563.06;5072363;28;20024;-48
2024/02/28 03:44:15;;;;;;;26.63;21.27;;;;;;;11.64;62.79;98572.94;5072395;28;20028;-48
2024/02/28 03:46:41;;;;;;;25.75;20.58;;;;;;;11.53;61.69;98571.81;5072266;28;20029;-48
2024/02/28 03:49:06;;;;;;;31.98;23.10;;;;;;;11.38;62.31;98576.50;5072239;28;20398;-48
2024/02/28 03:51:32;;;;;;;46.53;41.50;;;;;;;11.34;62.98;98573.47;5070907;28;20115;-48
2024/02/28 03:53:58;;;;;;;27.30;21.13;;;;;;;11.27;63.22;98582.38;5072192;28;20021;-48
2024/02/28 03:56:25;;;;;;;28.42;21.67;;;;;;;11.27;63.15;98585.00;5072111;28;20043;-48
2024/02/28 03:58:51;;;;;;;29.30;22.25;;;;;;;11.29;63.14;98578.56;5072098;28;20111;-48
2024/02/28 04:01:17;;;;;;;29.92;22.70;;;;;;;11.20;62.95;98591.09;5070803;28;20402;-48
2024/02/28 04:03:43;;;;;;;27.88;22.17;;;;;;;11.13;63.19;98584.28;5072088;28;20024;-48
2024/02/28 04:06:08;;;;;;;26.25;19.42;;;;;;;11.30;63.18;98584.63;5072009;28;20626;-48
2024/02/28 04:08:34;;;;;;;29.00;23.40;;;;;;;11.28;62.55;98595.31;5072000;28;20028;-46
2024/02/28 04:11:00;;;;;;;28.58;23.13;;;;;;;11.23;62.73;98587.28;5070648;28;20030;-46
2024/02/28 04:13:26;;;;;;;27.85;20.92;;;;;;;11.26;63.04;98601.81;5071865;28;20066;-46
2024/02/28 04:15:52;;;;;;;27.30;21.85;;;;;;;11.38;63.34;98602.78;5070493;28;20036;-46
2024/02/28 04:18:18;;;;;;;30.00;20.15;;;;;;;11.46;62.92;98614.88;5071925;28;20036;-46
2024/02/28 04:20:44;;;;;;;25.40;20.73;;;;;;;11.53;62.48;98607.75;5071870;28;20027;-46
2024/02/28 04:23:09;;;;;;;29.27;24.42;;;;;;;11.52;61.93;98606.16;5071824;28;20032;-46
2024/02/28 04:25:35;;;;;;;26.48;21.60;;;;;;;11.47;61.95;98624.38;5070502;28;20032;-45
2024/02/28 04:28:02;;;;;;;26.85;20.63;;;;;;;11.49;62.22;98620.53;5071819;28;20085;-45
2024/02/28 04:30:28;;;;;;;31.10;21.52;;;;;;;11.59;62.42;98617.47;5071729;28;20544;-46
2024/02/28 04:32:54;;;;;;;27.90;21.85;;;;;;;11.55;62.16;98622.34;5071534;28;20094;-46
2024/02/28 04:35:19;;;;;;;26.48;21.02;;;;;;;11.60;62.27;98619.88;5070426;28;20033;-46
2024/02/28 04:37:48;;;;;;;33.83;21.60;;;;;;;11.55;61.66;98632.03;5071669;28;20024;-46
2024/02/28 04:40:15;;;;;;;26.42;21.25;;;;;;;11.56;61.83;98628.38;5078285;28;20482;-46
2024/02/28 04:42:42;;;;;;;25.58;20.70;;;;;;;11.58;61.78;98629.00;5078322;28;20016;-45
2024/02/28 04:45:08;;;;;;;28.40;20.75;;;;;;;11.54;61.53;98630.41;5076977;28;20085;-46
2024/02/28 04:47:34;;;;;;;31.45;19.98;;;;;;;11.52;62.07;98633.25;5078266;28;20096;-46
2024/02/28 04:50:00;;;;;;;30.33;21.60;;;;;;;11.56;61.36;98644.16;5078203;28;20107;-45
2024/02/28 04:52:27;;;;;;;26.42;20.67;;;;;;;11.51;61.56;98638.72;5076855;28;20056;-46
2024/02/28 04:54:53;;;;;;;26.35;21.08;;;;;;;11.47;61.99;98642.75;5078175;28;20036;-46
2024/02/28 04:57:19;;;;;;;31.67;24.08;;;;;;;11.50;62.01;98642.38;5076844;28;20028;-46
2024/02/28 04:59:46;;;;;;;28.83;22.85;;;;;;;11.53;62.01;98645.38;5078166;28;20032;-46
2024/02/28 05:02:12;;;;;;;30.15;23.27;;;;;;;11.57;61.33;98646.59;5076782;28;20025;-46
2024/02/28 05:04:37;;;;;;;29.80;22.10;;;;;;;11.47;61.71;98666.41;5078339;28;20104;-46
2024/02/28 05:07:03;;;;;;;30.23;21.63;;;;;;;11.46;62.12;98662.19;5078043;28;20032;-46
2024/02/28 05:09:29;;;;;;;32.95;23.05;;;;;;;11.52;61.73;98667.41;5078044;28;20032;-45
2024/02/28 05:11:55;;;;;;;30.02;22.23;;;;;;;11.53;61.38;98661.16;5077864;28;20039;-45
2024/02/28 05:14:20;;;;;;;29.25;23.13;;;;;;;11.48;60.82;98668.84;5078048;28;20016;-46
2024/02/28 05:16:49;;;;;;;31.90;20.05;;;;;;;11.35;61.44;98664.44;5076699;28;20122;-45
2024/02/28 05:19:17;;;;;;;27.58;21.10;;;;;;;11.24;61.58;98672.13;5077928;28;20025;-46
2024/02/28 05:21:43;;;;;;;31.23;21.25;;;;;;;11.25;62.00;98685.06;5076741;28;20025;-45
2024/02/28 05:24:09;;;;;;;29.15;21.35;;;;;;;11.34;62.58;98691.72;5076692;28;20032;-46
2024/02/28 05:26:36;;;;;;;28.45;20.83;;;;;;;11.43;62.46;98694.94;5060202;28;20073;-46
2024/02/28 05:29:03;;;;;;;25.65;20.20;;;;;;;11.47;61.97;98687.44;5076572;28;20074;-47
2024/02/28 05:31:29;;;;;;;45.50;27.45;;;;;;;11.69;61.59;98693.25;5076574;28;20115;-46
2024/02/28 05:33:56;;;;;;;28.15;21.02;;;;;;;11.69;61.20;98691.44;5077474;28;20051;-45
2024/02/28 05:36:23;;;;;;;29.98;21.50;;;;;;;11.68;61.01;98705.59;5078051;28;20382;-46
2024/02/28 05:38:49;;;;;;;26.88;20.63;;;;;;;11.73;61.27;98708.41;5077742;28;20024;-46
2024/02/28 05:41:18;;;;;;;37.38;23.67;;;;;;;11.79;61.45;98704.13;5076524;28;20040;-46
2024/02/28 05:43:45;;;;;;;28.23;22.02;;;;;;;11.90;61.14;98705.34;5076501;28;20032;-46
2024/02/28 05:46:11;;;;;;;27.92;20.98;;;;;;;11.89;60.08;98704.56;5076433;28;20024;-46
2024/02/28 05:48:37;;;;;;;29.52;21.48;;;;;;;11.87;60.41;98703.09;5077730;28;20047;-46
2024/02/28 05:51:03;;;;;;;30.10;21.98;;;;;;;11.86;60.63;98688.34;5073270;28;20036;-46
2024/02/28 05:53:35;;;;;;;29.35;21.65;;;;;;;11.87;60.24;98676.81;5074686;28;20028;-46
2024/02/28 05:56:02;;;;;;;39.78;23.27;;;;;;;11.73;59.96;98679.50;5074468;28;20033;-46
2024/02/28 05:58:28;;;;;;;33.53;22.67;;;;;;;11.54;60.11;98685.63;5074493;28;20042;-46
2024/02/28 06:00:53;;;;;;;34.88;22.73;;;;;;;11.44;60.97;98691.28;5074335;28;20028;-46
2024/02/28 06:03:19;;;;;;;35.33;21.98;;;;;;;11.48;60.97;98699.56;5073037;28;20028;-46
2024/02/28 06:05:46;;;;;;;37.22;21.83;;;;;;;11.45;61.12;98695.56;5074305;28;20094;-46
2024/02/28 06:08:12;;;;;;;33.70;22.65;;;;;;;11.49;61.47;98703.81;5074254;28;20099;-46
2024/02/28 06:10:38;;;;;;;35.35;23.60;;;;;;;11.43;61.31;98715.13;5074208;28;20104;-46
2024/02/28 06:13:03;;;;;;;33.53;23.65;;;;;;;11.31;61.37;98722.88;5074088;28;20398;-46
2024/02/28 06:15:29;;;;;;;31.42;22.73;;;;;;;11.32;61.91;98734.97;5074104;28;20064;-46
2024/02/28 06:18:00;;;;;;;32.50;22.30;;;;;;;11.38;61.72;98729.69;5074098;28;20043;-46
2024/02/28 06:20:26;;;;;;;32.72;22.48;;;;;;;11.46;61.62;98733.13;5073925;28;20047;-46
2024/02/28 06:22:52;;;;;;;33.38;22.65;;;;;;;11.37;61.37;98743.88;5073943;28;20490;-46
2024/02/28 06:25:19;;;;;;;44.75;29.65;;;;;;;11.20;61.87;98743.47;5073923;28;20065;-46
2024/02/28 06:27:45;;;;;;;35.50;24.60;;;;;;;11.15;62.05;98742.47;5072605;28;20033;-46
2024/02/28 06:30:16;;;;;;;33.65;22.27;;;;;;;11.05;62.44;98749.94;5073853;28;20028;-46
2024/02/28 06:32:42;;;;;;;31.60;24.08;;;;;;;11.03;62.39;98754.56;5073503;28;20058;-46
2024/02/28 06:35:08;;;;;;;33.90;24.67;;;;;;;11.12;62.78;98761.25;5073793;28;20029;-46
2024/02/28 06:37:34;;;;;;;35.35;25.30;;;;;;;11.08;62.14;98771.34;5073716;28;20056;-46
2024/02/28 06:40:00;;;;;;;31.73;22.20;;;;;;;10.99;62.98;98778.63;5073648;28;20067;-46
2024/02/28 06:42:26;;;;;;;29.58;21.70;;;;;;;11.09;63.00;98782.69;5073692;28;20020;-46
2024/02/28 06:44:52;;;;;;;33.00;24.05;;;;;;;11.28;62.85;98778.44;5073592;28;20505;-46
2024/02/28 06:47:20;;;;;;;31.92;23.02;;;;;;;11.46;62.58;98783.06;5072314;28;20036;-46
2024/02/28 06:49:46;;;;;;;37.60;22.48;;;;;;;11.44;61.54;98780.63;5073472;28;20025;-46
2024/02/28 06:52:11;;;;;;;29.92;22.23;;;;;;;11.31;61.78;98785.91;5073559;28;20033;-46
2024/02/28 06:54:37;;;;;;;35.15;22.55;;;;;;;11.20;61.94;98792.56;5073378;28;20479;-46
2024/02/28 06:57:04;;;;;;;35.88;23.95;;;;;;;11.28;62.09;98788.94;5073360;28;20040;-46
2024/02/28 06:59:30;;;;;;;30.75;23.30;;;;;;;11.27;62.18;98796.03;5071939;28;20028;-46
2024/02/28 07:01:55;;;;;;;34.00;24.52;;;;;;;11.26;62.23;98807.53;5071650;28;20113;-46
2024/02/28 07:04:21;;;;;;;39.00;26.05;;;;;;;11.30;62.46;98789.53;5073214;28;20032;-46
2024/02/28 07:06:47;;;;;;;35.88;23.00;;;;;;;11.53;62.10;98804.88;5073085;28;20104;-46
2024/02/28 07:09:15;;;;;;;32.33;23.63;;;;;;;11.64;61.53;98799.03;5073072;28;20497;-46
2024/02/28 07:11:41;;;;;;;37.33;24.30;;;;;;;11.63;61.31;98793.97;5073043;28;20036;-46
2024/02/28 07:14:06;;;;;;;37.55;23.52;;;;;;;11.65;60.95;98790.13;5072960;28;20041;-46
2024/02/28 07:16:33;;;;;;;29.67;21.52;;;;;;;11.69;60.95;98785.25;5072879;28;20028;-46
2024/02/28 07:19:03;;;;;;;30.20;21.75;;;;;;;11.93;59.76;98799.59;5072837;28;20074;-46
2024/02/28 07:21:30;;;;;;;33.00;24.75;;;;;;;11.85;59.47;98802.41;5071462;28;20025;-46
2024/02/28 07:23:56;;;;;;;31.90;22.33;;;;;;;11.74;60.60;98809.94;5073066;28;20070;-46
2024/02/28 07:26:22;;;;;;;46.38;23.20;;;;;;;11.69;60.00;98809.75;5072695;28;20516;-46
2024/02/28 07:28:49;;;;;;;46.90;29.63;;;;;;;11.70;59.93;98819.25;5072634;28;20032;-45
2024/02/28 07:31:16;;;;;;;35.92;23.42;;;;;;;11.54;59.88;98830.97;5072628;28;20024;-48
2024/02/28 07:33:42;;;;;;;34.90;23.27;;;;;;;11.36;60.72;98826.31;5072342;28;20064;-48
2024/02/28 07:36:08;;;;;;;35.55;24.58;;;;;;;11.36;60.30;98828.16;5071192;28;20113;-48
2024/02/28 07:38:34;;;;;;;32.20;22.58;;;;;;;11.27;60.89;98816.19;5071176;28;20190;-48
2024/02/28 07:40:59;;;;;;;50.20;22.65;;;;;;;11.42;61.27;98813.41;5072705;28;20099;-48
2024/02/28 07:43:25;;;;;;;40.50;22.10;;;;;;;11.69;60.44;98822.06;5072630;28;20023;-48
2024/02/28 07:45:51;;;;;;;37.15;24.10;;;;;;;11.70;59.46;98826.31;5071025;28;20487;-48
2024/02/28 07:48:17;;;;;;;32.88;21.83;;;;;;;11.46;59.89;98825.91;5072327;28;20398;-48
2024/02/28 07:50:45;;;;;;;33.53;23.30;;;;;;;11.28;60.65;98829.16;5072121;28;20032;-48
2024/02/28 07:53:10;;;;;;;42.30;23.40;;;;;;;11.06;61.01;98820.63;5070853;28;20116;-48
2024/02/28 07:55:36;;;;;;;36.67;22.40;;;;;;;11.06;61.68;98830.34;5072221;28;20107;-48
2024/02/28 07:58:02;;;;;;;36.65;23.15;;;;;;;10.98;61.61;98823.44;5072165;28;20398;-48
2024/02/28 08:00:28;;;;;;;29.27;21.48;;;;;;;10.90;61.70;98813.94;5072324;28;20027;-47
2024/02/28 08:02:54;;;;;;;47.35;26.58;;;;;;;10.68;62.14;98821.16;5070750;28;20027;-48
2024/02/28 08:05:19;;;;;;;37.25;22.25;;;;;;;10.63;62.96;98820.94;5072085;28;20020;-47
2024/02/28 08:07:45;;;;;;;41.60;26.60;;;;;;;10.61;63.14;98837.91;5072079;28;20029;-48
2024/02/28 08:10:11;;;;;;;31.95;20.23;;;;;;;10.65;63.37;98847.81;5072029;28;20521;-48
2024/02/28 08:12:37;;;;;;;44.83;24.70;;;;;;;10.55;63.19;98845.53;5071141;28;20104;-47
2024/02/28 08:15:03;;;;;;;45.47;24.33;;;;;;;10.51;63.58;98843.53;5071919;28;20051;-48
2024/02/28 08:17:29;;;;;;;37.03;23.70;;;;;;;10.49;63.45;98841.09;5071971;28;20402;-48
2024/02/28 08:19:55;;;;;;;33.70;22.33;;;;;;;10.36;64.06;98847.09;5072139;28;20099;-48
2024/02/28 08:22:21;;;;;;;34.90;22.52;;;;;;;10.44;64.40;98845.28;5072137;28;20048;-48
2024/02/28 08:24:46;;;;;;;40.97;27.23;;;;;;;10.43;64.23;98868.09;5071832;28;20017;-47
2024/02/28 08:27:12;;;;;;;38.17;25.30;;;;;;;10.49;64.67;98856.81;5071781;28;20524;-46
2024/02/28 08:29:43;;;;;;;37.97;24.25;;;;;;;10.54;64.58;98867.56;5070499;28;20075;-45
2024/02/28 08:32:10;;;;;;;33.90;23.25;;;;;;;10.58;63.42;98860.09;5071613;28;20025;-45
2024/02/28 08:34:36;;;;;;;39.05;27.73;;;;;;;10.34;63.77;98879.75;5071516;28;20048;-45
2024/02/28 08:37:02;;;;;;;35.42;23.52;;;;;;;10.24;64.88;98877.47;5071682;28;20087;-48
2024/02/28 08:39:28;;;;;;;36.78;25.20;;;;;;;10.30;64.85;98879.34;5071679;28;20073;-48
2024/02/28 08:41:53;;;;;;;41.90;28.35;;;;;;;10.38;64.63;98857.38;5070291;28;20055;-47
2024/02/28 08:44:20;;;;;;;35.17;24.92;;;;;;;10.40;64.40;98865.84;5070328;28;20490;-47
2024/02/28 08:46:49;;;;;;;35.05;21.67;;;;;;;10.42;64.70;98874.34;5071526;28;20104;-48
2024/02/28 08:49:15;;;;;;;35.15;24.92;;;;;;;10.61;64.22;98874.66;5071857;28;20036;-47
2024/02/28 08:51:41;;;;;;;37.08;22.63;;;;;;;10.71;63.62;98882.97;5071595;28;20514;-48
2024/02/28 08:54:06;;;;;;;35.78;25.30;;;;;;;10.72;63.88;98879.31;5070409;28;20112;-48
2024/02/28 08:56:33;;;;;;;38.78;24.27;;;;;;;10.74;63.87;98886.00;5070230;28;20436;-48
2024/02/28 08:58:59;;;;;;;41.53;24.75;;;;;;;10.81;64.03;98890.47;5071520;28;20027;-46
2024/02/28 09:01:25;;;;;;;44.30;25.48;;;;;;;10.92;63.70;98885.44;5071481;28;20398;-46
2024/02/28 09:03:50;;;;;;;43.65;28.90;;;;;;;11.04;63.32;98890.94;5070139;28;20020;-46
2024/02/28 09:06:16;;;;;;;40.72;24.92;;;;;;;11.07;62.84;98895.00;5070141;28;20028;-46
2024/02/28 09:08:42;;;;;;;36.33;25.85;;;;;;;10.99;62.72;98893.38;5071362;28;20562;-45
2024/02/28 09:11:08;;;;;;;34.90;25.27;;;;;;;10.97;63.17;98901.44;5070031;28;20118;-46
2024/02/28 09:13:37;;;;;;;38.42;26.60;;;;;;;10.98;62.84;98889.09;5071336;28;20048;-45
2024/02/28 09:16:03;;;;;;;40.70;26.17;;;;;;;11.02;63.23;98900.03;5071353;28;20103;-47
2024/02/28 09:18:29;;;;;;;45.97;28.15;;;;;;;10.84;63.19;98913.69;5071293;28;20131;-48
2024/02/28 09:20:56;;;;;;;38.42;25.50;;;;;;;10.84;63.35;98914.50;5071337;28;20063;-48
2024/02/28 09:23:22;;;;;;;36.33;24.85;;;;;;;10.89;63.23;98917.38;5071299;28;20437;-48
2024/02/28 09:25:48;;;;;;;36.33;24.48;;;;;;;10.85;63.22;98918.75;5074671;28;20028;-48
2024/02/28 09:28:15;;;;;;;35.83;22.05;;;;;;;10.92;63.17;98903.81;5075039;28;20042;-48
2024/02/28 09:30:47;;;;;;;39.35;24.55;;;;;;;11.03;62.89;98909.50;5074904;28;20452;-48
2024/02/28 09:33:13;;;;;;;39.30;26.02;;;;;;;11.11;62.50;98914.63;5074804;28;20091;-48
2024/02/28 09:35:39;;;;;;;40.40;24.45;;;;;;;11.15;62.09;98919.25;5074789;28;20399;-47
2024/02/28 09:38:05;;;;;;;36.85;23.30;;;;;;;11.09;62.41;98917.44;5073416;28;20039;-48
2024/02/28 09:40:31;;;;;;;36.85;25.00;;;;;;;10.95;61.98;98916.56;5074774;28;20047;-48
2024/02/28 09:43:02;;;;;;;40.30;25.17;;;;;;;10.94;62.98;98914.94;5074711;28;20525;-48
2024/02/28 09:45:30;;;;;;;37.13;23.77;;;;;;;11.15;63.32;98913.22;5074660;28;20032;-45
2024/02/28 09:47:58;;;;;;;36.13;23.25;;;;;;;11.33;62.60;98910.03;5073312;28;20024;-45
2024/02/28 09:50:26;;;;;;;39.33;23.65;;;;;;;11.31;62.07;98915.47;5074531;28;20028;-45
2024/02/28 09:52:52;;;;;;;37.70;23.40;;;;;;;11.32;61.79;98922.31;5074652;28;20085;-48
2024/02/28 09:55:18;;;;;;;36.92;24.20;;;;;;;11.42;61.45;98921.13;5074485;28;20554;-48
2024/02/28 09:57:48;;;;;;;40.80;25.13;;;;;;;11.37;61.25;98919.13;5073153;28;20032;-48
2024/02/28 10:00:18;;;;;;;33.60;22.05;;;;;;;11.20;61.38;98932.59;5073097;28;20031;-48
2024/02/28 10:02:47;;;;;;;38.67;25.27;;;;;;;10.99;62.02;98928.31;5074388;28;20099;-48
2024/02/28 10:05:13;;;;;;;39.25;26.15;;;;;;;10.92;62.33;98927.47;5073013;28;20040;-48
2024/02/28 10:07:39;;;;;;;37.60;24.83;;;;;;;11.00;63.00;98931.72;5073124;28;20024;-48
2024/02/28 10:10:08;;;;;;;45.75;25.40;;;;;;;11.14;62.27;98933.38;5072926;28;20020;-48
2024/02/28 10:12:34;;;;;;;37.00;26.70;;;;;;;11.15;61.80;98929.78;5072798;28;20024;-48
2024/02/28 10:15:01;;;;;;;34.20;24.75;;;;;;;11.17;61.90;98930.38;5074092;28;20028;-48
2024/02/28 10:17:27;;;;;;;35.80;24.42;;;;;;;11.26;62.28;98930.19;5074161;28;20217;-48
2024/02/28 10:19:53;;;;;;;34.22;23.98;;;;;;;11.33;61.66;98939.72;5073982;28;20137;-48
2024/02/28 10:22:19;;;;;;;36.90;24.98;;;;;;;11.48;61.02;98918.50;5073019;28;20035;-48
2024/02/28 10:24:44;;;;;;;36.22;26.25;;;;;;;11.46;60.81;98931.03;5073936;28;20047;-48
2024/02/28 10:27:10;;;;;;;36.00;21.98;;;;;;;11.42;60.13;98916.69;5073909;28;20024;-47
2024/02/28 10:29:36;;;;;;;37.17;25.13;;;;;;;11.16;61.13;98936.63;5073860;28;20405;-47
2024/02/28 10:32:05;;;;;;;36.63;26.75;;;;;;;11.09;61.70;98943.69;5073685;28;20024;-48
2024/02/28 10:34:34;;;;;;;41.03;25.92;;;;;;;11.06;62.08;98948.53;5073627;28;20068;-48
2024/02/28 10:37:00;;;;;;;41.17;25.40;;;;;;;11.09;62.58;98940.28;5072989;28;20028;-47
2024/02/28 10:39:28;;;;;;;36.88;25.48;;;;;;;11.16;61.99;98946.34;5073687;28;20025;-48
2024/02/28 10:41:55;;;;;;;39.95;26.00;;;;;;;11.11;61.52;98952.19;5073534;28;20024;-47
2024/02/28 10:44:22;;;;;;;38.88;25.85;;;;;;;11.10;61.75;98955.81;5072341;28;20025;-48
2024/02/28 10:46:51;;;;;;;38.40;26.92;;;;;;;11.17;62.28;98961.91;5073496;28;20021;-48
2024/02/28 10:49:17;;;;;;;42.97;29.40;;;;;;;11.28;61.81;98965.78;5072211;28;20035;-48
2024/02/28 10:51:46;;;;;;;39.58;24.42;;;;;;;11.43;61.52;98954.28;5072101;28;20029;-48
2024/02/28 10:54:13;;;;;;;39.00;27.92;;;;;;;11.55;60.73;98974.53;5072003;28;20379;-47
2024/02/28 10:56:40;;;;;;;37.47;26.48;;;;;;;11.60;60.86;98976.56;5073369;28;20032;-48
2024/02/28 10:59:08;;;;;;;36.03;26.05;;;;;;;11.56;60.63;98973.53;5073537;28;20099;-48
2024/02/28 11:01:41;;;;;;;38.28;25.25;;;;;;;11.63;60.70;98978.81;5073246;28;20425;-48
2024/02/28 11:04:08;;;;;;;41.30;25.65;;;;;;;11.75;60.49;98977.22;5073223;28;20555;-48
2024/02/28 11:06:33;;;;;;;35.60;23.83;;;;;;;11.93;60.50;98974.00;5088804;28;20024;-48
2024/02/28 11:09:03;;;;;;;33.17;22.67;;;;;;;12.12;59.79;98980.28;5073126;28;20577;-48
2024/02/28 11:11:33;;;;;;;48.35;29.73;;;;;;;12.33;58.95;98986.31;5071756;28;20081;-48